Time;durP1;ratioP1;P1;durP2;ratioP2;P2;SDS_P1;SDS_P2;PMS_P1;PMS_P2;Temp;Humidity;BMP_temperature;BMP_pressure;BME280_temperature;BME280_humidity;BME280_pressure;Samples;Min_cycle;Max_cycle;Signal;HPM_P1;HPM_P2
2023/09/25 00:00:32;;;;;;;2.17;1.10;;;11.60;99.90;;;;;;5054981;28;20052;-80
2023/09/25 00:03:02;;;;;;;1.40;0.90;;;11.60;99.90;;;;;;5050205;28;20049;-80
2023/09/25 00:05:30;;;;;;;1.30;0.97;;;11.60;99.90;;;;;;5044778;28;20080;-80
2023/09/25 00:07:57;;;;;;;3.60;0.85;;;11.60;99.90;;;;;;5053187;28;20077;-79
2023/09/25 00:10:24;;;;;;;1.52;0.75;;;11.50;99.90;;;;;;5039383;28;20129;-80
2023/09/25 00:12:51;;;;;;;1.08;0.80;;;11.50;99.90;;;;;;5052576;28;20055;-80
2023/09/25 00:15:18;;;;;;;1.48;0.90;;;11.50;99.90;;;;;;5051816;28;20045;-80
2023/09/25 00:17:45;;;;;;;4.80;0.90;;;11.50;99.90;;;;;;5050088;28;20452;-80
2023/09/25 00:20:12;;;;;;;1.33;0.90;;;11.50;99.90;;;;;;5044924;28;20041;-79
2023/09/25 00:22:42;;;;;;;3.00;1.10;;;11.50;99.90;;;;;;5048271;28;20071;-80
2023/09/25 00:25:08;;;;;;;3.78;0.95;;;11.40;99.90;;;;;;5043301;28;20140;-80
2023/09/25 00:27:35;;;;;;;1.38;1.00;;;11.40;99.90;;;;;;5052493;28;20051;-79
2023/09/25 00:30:08;;;;;;;1.48;0.93;;;11.40;99.90;;;;;;5049702;28;20045;-79
2023/09/25 00:32:36;;;;;;;1.33;0.90;;;11.40;99.90;;;;;;5050059;28;20083;-79
2023/09/25 00:35:05;;;;;;;5.32;0.82;;;11.40;99.90;;;;;;5043407;28;20061;-80
2023/09/25 00:37:32;;;;;;;1.58;0.77;;;11.30;99.90;;;;;;5028861;28;20095;-79
2023/09/25 00:39:59;;;;;;;2.08;1.00;;;11.30;99.90;;;;;;5047620;28;20095;-79
2023/09/25 00:42:26;;;;;;;2.90;0.88;;;11.30;99.90;;;;;;5055788;28;20048;-80
2023/09/25 00:44:53;;;;;;;1.77;1.02;;;11.30;99.90;;;;;;5048260;28;20100;-79
2023/09/25 00:47:20;;;;;;;4.20;1.08;;;11.30;99.90;;;;;;5052174;28;20076;-80
2023/09/25 00:49:47;;;;;;;2.40;1.08;;;11.30;99.90;;;;;;5042469;28;20133;-79
2023/09/25 00:52:14;;;;;;;2.72;0.85;;;11.30;99.90;;;;;;5050006;28;20077;-79
2023/09/25 00:54:41;;;;;;;4.25;1.00;;;11.20;99.90;;;;;;5048066;28;20045;-80
2023/09/25 00:57:10;;;;;;;2.65;0.90;;;11.20;99.90;;;;;;5056679;28;20112;-80
2023/09/25 00:59:39;;;;;;;2.42;1.10;;;11.20;99.90;;;;;;5059671;28;20568;-79
2023/09/25 01:02:06;;;;;;;1.75;1.10;;;11.20;99.90;;;;;;5058465;28;20049;-80
2023/09/25 01:04:33;;;;;;;3.83;1.50;;;11.20;99.90;;;;;;5047577;28;20049;-79
2023/09/25 01:07:01;;;;;;;2.17;1.23;;;11.20;99.90;;;;;;5048273;28;20131;-79
2023/09/25 01:09:28;;;;;;;3.05;1.15;;;11.10;99.90;;;;;;5050652;28;20040;-79
2023/09/25 01:11:54;;;;;;;1.33;1.02;;;11.10;99.90;;;;;;5052724;28;20045;-79
2023/09/25 01:14:22;;;;;;;1.25;1.08;;;11.10;99.90;;;;;;5047660;28;20085;-79
2023/09/25 01:16:48;;;;;;;2.17;0.90;;;11.10;99.90;;;;;;5047542;28;20049;-79
2023/09/25 01:19:15;;;;;;;3.70;1.23;;;11.10;99.90;;;;;;5040759;28;20053;-79
2023/09/25 01:21:46;;;;;;;3.22;1.42;;;11.10;99.90;;;;;;5044631;28;20072;-79
2023/09/25 01:24:13;;;;;;;1.88;1.10;;;11.00;99.90;;;;;;5033354;28;20045;-79
2023/09/25 01:26:40;;;;;;;1.70;0.90;;;11.00;99.90;;;;;;5051720;28;20514;-80
2023/09/25 01:29:06;;;;;;;3.85;0.80;;;11.00;99.90;;;;;;5045370;28;20401;-80
2023/09/25 01:31:33;;;;;;;3.28;1.27;;;11.00;99.90;;;;;;5034849;28;20047;-80
2023/09/25 01:34:00;;;;;;;2.83;1.10;;;11.00;99.90;;;;;;5026003;28;20057;-80
2023/09/25 01:36:27;;;;;;;2.83;1.17;;;11.00;99.90;;;;;;5054685;28;20409;-79
2023/09/25 01:38:54;;;;;;;5.32;1.13;;;11.00;99.90;;;;;;5062678;28;20061;-79
2023/09/25 01:41:20;;;;;;;4.22;1.10;;;10.90;99.90;;;;;;5053655;28;20114;-80
2023/09/25 01:43:47;;;;;;;1.70;1.27;;;10.90;99.90;;;;;;5043828;28;20048;-79
2023/09/25 01:46:14;;;;;;;2.58;1.02;;;10.90;99.90;;;;;;5045635;28;20049;-79
2023/09/25 01:48:41;;;;;;;2.65;1.08;;;10.90;99.90;;;;;;5038817;28;20045;-80
2023/09/25 01:51:09;;;;;;;4.10;1.00;;;10.90;99.90;;;;;;5049849;28;20084;-79
2023/09/25 01:53:36;;;;;;;2.75;1.00;;;10.90;99.90;;;;;;5047754;28;20040;-79
2023/09/25 01:56:11;;;;;;;1.58;0.93;;;10.80;99.90;;;;;;5048764;28;20053;-79
2023/09/25 01:58:40;;;;;;;1.55;1.00;;;10.80;99.90;;;;;;5026515;28;20040;-81
2023/09/25 02:01:07;;;;;;;3.33;0.90;;;10.80;99.90;;;;;;5053019;28;20045;-81
2023/09/25 02:03:34;;;;;;;2.63;0.82;;;10.80;99.90;;;;;;5042124;28;20124;-79
2023/09/25 02:06:03;;;;;;;1.40;1.08;;;10.80;99.90;;;;;;5047510;28;20052;-79
2023/09/25 02:08:30;;;;;;;2.42;1.08;;;10.80;99.90;;;;;;5050557;28;20077;-79
2023/09/25 02:10:56;;;;;;;3.85;1.10;;;10.70;99.90;;;;;;5048176;28;20049;-79
2023/09/25 02:13:23;;;;;;;1.48;1.13;;;10.70;99.90;;;;;;5026164;28;20046;-79
2023/09/25 02:15:51;;;;;;;3.20;1.48;;;10.70;99.90;;;;;;5047082;28;20485;-79
2023/09/25 02:18:18;;;;;;;3.38;1.25;;;10.70;99.90;;;;;;5043600;28;20056;-80
2023/09/25 02:20:45;;;;;;;3.42;1.30;;;10.60;99.90;;;;;;5051514;28;20115;-80
2023/09/25 02:23:12;;;;;;;1.55;1.10;;;10.60;99.90;;;;;;5050781;28;20048;-80
2023/09/25 02:25:39;;;;;;;1.70;1.20;;;10.60;99.90;;;;;;5054609;28;20119;-79
2023/09/25 02:28:06;;;;;;;1.65;1.15;;;10.60;99.90;;;;;;5026752;28;20046;-80
2023/09/25 02:30:32;;;;;;;2.17;1.20;;;10.60;99.90;;;;;;5050120;28;20083;-80
2023/09/25 02:32:59;;;;;;;2.05;1.23;;;10.60;99.90;;;;;;5045993;28;20049;-79
2023/09/25 02:35:26;;;;;;;2.88;1.30;;;10.50;99.90;;;;;;5049636;28;20087;-79
2023/09/25 02:37:53;;;;;;;2.47;1.55;;;10.50;99.90;;;;;;5051655;28;20049;-80
2023/09/25 02:40:20;;;;;;;5.63;1.83;;;10.50;99.90;;;;;;5051221;28;20053;-79
2023/09/25 02:42:47;;;;;;;4.00;1.67;;;10.50;99.90;;;;;;5045161;28;20045;-80
2023/09/25 02:45:14;;;;;;;5.22;1.50;;;10.50;99.90;;;;;;5045719;28;20076;-79
2023/09/25 02:47:42;;;;;;;3.13;1.50;;;10.50;99.90;;;;;;5044681;28;20049;-80
2023/09/25 02:50:10;;;;;;;4.43;1.45;;;10.50;99.90;;;;;;5051656;28;20042;-80
2023/09/25 02:52:37;;;;;;;2.38;1.50;;;10.40;99.90;;;;;;5052355;28;20101;-79
2023/09/25 02:55:04;;;;;;;3.22;1.75;;;10.40;99.90;;;;;;5033049;28;20099;-79
2023/09/25 02:57:30;;;;;;;2.55;1.50;;;10.40;99.90;;;;;;5047838;28;20107;-80
2023/09/25 02:59:57;;;;;;;2.90;1.63;;;10.40;99.90;;;;;;5045271;28;20409;-80
2023/09/25 03:02:25;;;;;;;3.88;1.45;;;10.40;99.90;;;;;;5045947;28;20421;-79
2023/09/25 03:04:53;;;;;;;2.72;1.42;;;10.40;99.90;;;;;;5055629;28;20484;-80
2023/09/25 03:07:21;;;;;;;1.70;1.17;;;10.40;99.90;;;;;;5050277;28;20144;-81
2023/09/25 03:09:48;;;;;;;3.80;1.60;;;10.40;99.90;;;;;;5051330;28;20102;-79
2023/09/25 03:12:15;;;;;;;4.63;1.40;;;10.40;99.90;;;;;;5044254;28;20111;-80
2023/09/25 03:14:42;;;;;;;4.75;2.88;;;10.30;99.90;;;;;;5048645;28;20080;-79
2023/09/25 03:17:09;;;;;;;9.05;1.45;;;10.30;99.90;;;;;;5038206;28;20090;-80
2023/09/25 03:19:38;;;;;;;2.08;1.38;;;10.30;99.90;;;;;;5057524;28;20400;-79
2023/09/25 03:22:05;;;;;;;5.93;1.48;;;10.30;99.90;;;;;;5048029;28;20041;-79
2023/09/25 03:24:31;;;;;;;2.60;1.55;;;10.30;99.90;;;;;;5052290;28;20057;-79
2023/09/25 03:26:58;;;;;;;4.43;1.50;;;10.20;99.90;;;;;;5043464;28;20046;-80
2023/09/25 03:29:25;;;;;;;2.88;1.30;;;10.20;99.90;;;;;;5028283;28;20087;-79
2023/09/25 03:31:51;;;;;;;5.10;1.65;;;10.30;99.90;;;;;;5048307;28;20049;-79
2023/09/25 03:34:20;;;;;;;2.33;1.70;;;10.20;99.90;;;;;;5050497;28;20050;-79
2023/09/25 03:36:47;;;;;;;2.15;1.48;;;10.20;99.90;;;;;;5050142;28;20049;-79
2023/09/25 03:39:14;;;;;;;2.00;1.65;;;10.20;99.90;;;;;;5031972;28;20064;-80
2023/09/25 03:41:41;;;;;;;2.03;1.23;;;10.20;99.90;;;;;;5047051;28;20041;-80
2023/09/25 03:44:07;;;;;;;2.95;1.30;;;10.20;99.90;;;;;;5044057;28;20489;-80
2023/09/25 03:46:34;;;;;;;4.10;1.50;;;10.20;99.90;;;;;;5034605;28;20049;-79
2023/09/25 03:49:05;;;;;;;3.75;1.30;;;10.10;99.90;;;;;;5053309;28;20504;-79
2023/09/25 03:51:33;;;;;;;2.20;1.27;;;10.10;99.90;;;;;;5051086;28;20053;-80
2023/09/25 03:54:00;;;;;;;2.88;1.33;;;10.10;99.90;;;;;;5047846;28;20555;-80
2023/09/25 03:56:29;;;;;;;3.15;1.20;;;10.10;99.90;;;;;;5052107;28;20049;-79
2023/09/25 03:58:55;;;;;;;4.85;1.50;;;10.10;99.90;;;;;;5043618;28;20049;-80
2023/09/25 04:01:22;;;;;;;4.97;1.80;;;10.10;99.90;;;;;;5054788;28;20045;-80
2023/09/25 04:03:49;;;;;;;2.35;1.38;;;10.00;99.90;;;;;;5055227;28;20041;-80
2023/09/25 04:06:18;;;;;;;2.80;1.20;;;10.00;99.90;;;;;;5047671;28;20136;-79
2023/09/25 04:08:45;;;;;;;5.38;1.40;;;10.00;99.90;;;;;;5033850;28;20504;-80
2023/09/25 04:11:11;;;;;;;2.97;1.33;;;10.00;99.90;;;;;;5050761;28;20045;-80
2023/09/25 04:13:40;;;;;;;3.85;1.58;;;10.00;99.90;;;;;;5043750;28;20139;-80
2023/09/25 04:16:06;;;;;;;2.17;1.10;;;9.90;99.90;;;;;;5052944;28;20050;-82
2023/09/25 04:18:33;;;;;;;3.03;1.45;;;9.90;99.90;;;;;;5053532;28;20061;-80
2023/09/25 04:21:06;;;;;;;3.75;1.48;;;9.90;99.90;;;;;;5046719;28;20056;-79
2023/09/25 04:23:33;;;;;;;2.30;1.67;;;9.90;99.90;;;;;;5047106;28;20053;-79
2023/09/25 04:26:00;;;;;;;2.65;1.23;;;9.90;99.90;;;;;;5046328;28;20069;-79
2023/09/25 04:28:30;;;;;;;2.75;1.50;;;9.80;99.90;;;;;;5039191;28;20418;-80
2023/09/25 04:30:59;;;;;;;6.00;1.65;;;9.80;99.90;;;;;;5051176;28;20049;-80
2023/09/25 04:33:29;;;;;;;6.90;2.05;;;9.80;99.90;;;;;;5051732;28;20076;-79
2023/09/25 04:35:58;;;;;;;5.65;2.67;;;9.80;99.90;;;;;;5046666;28;20080;-80
2023/09/25 04:38:26;;;;;;;3.28;1.83;;;9.80;99.90;;;;;;5049000;28;20504;-79
2023/09/25 04:40:53;;;;;;;2.90;2.05;;;9.80;99.90;;;;;;5047354;28;20053;-80
2023/09/25 04:43:20;;;;;;;3.55;1.40;;;9.80;99.90;;;;;;5047591;28;20481;-79
2023/09/25 04:45:51;;;;;;;1.50;1.33;;;9.70;99.90;;;;;;5051869;28;20076;-80
2023/09/25 04:48:25;;;;;;;4.38;2.15;;;9.70;99.90;;;;;;5054170;28;20076;-80
2023/09/25 04:50:51;;;;;;;5.68;2.65;;;9.70;99.90;;;;;;5048035;28;20044;-80
2023/09/25 04:53:22;;;;;;;4.25;2.33;;;9.70;99.90;;;;;;5032248;28;20072;-79
2023/09/25 04:55:49;;;;;;;2.60;1.70;;;9.70;99.90;;;;;;5044945;28;20052;-79
2023/09/25 04:58:15;;;;;;;5.07;1.92;;;9.70;99.90;;;;;;5055733;28;20467;-79
2023/09/25 05:00:44;;;;;;;2.10;1.63;;;9.70;99.90;;;;;;5055022;28;20076;-79
2023/09/25 05:03:11;;;;;;;6.05;2.35;;;9.60;99.90;;;;;;5052035;28;20052;-79
2023/09/25 05:05:38;;;;;;;2.00;1.55;;;9.60;99.90;;;;;;5031980;28;20056;-79
2023/09/25 05:08:05;;;;;;;4.30;2.17;;;9.60;99.90;;;;;;5046366;28;20072;-80
2023/09/25 05:10:31;;;;;;;4.78;1.98;;;9.60;99.90;;;;;;5049820;28;20045;-79
2023/09/25 05:12:58;;;;;;;3.08;1.48;;;9.60;99.90;;;;;;5056157;28;20052;-80
2023/09/25 05:15:25;;;;;;;7.25;1.70;;;9.60;99.90;;;;;;5050969;28;20077;-80
2023/09/25 05:17:52;;;;;;;3.15;1.42;;;9.60;99.90;;;;;;5053212;28;20048;-80
2023/09/25 05:20:22;;;;;;;1.45;1.35;;;9.50;99.90;;;;;;5046806;28;20140;-79
2023/09/25 05:22:51;;;;;;;2.80;1.80;;;9.50;99.90;;;;;;5029376;28;20037;-80
2023/09/25 05:25:19;;;;;;;2.33;1.85;;;9.50;99.90;;;;;;5047754;28;20044;-79
2023/09/25 05:27:48;;;;;;;3.60;1.55;;;9.50;99.90;;;;;;5059585;28;20045;-80
2023/09/25 05:30:17;;;;;;;1.85;1.20;;;9.50;99.90;;;;;;5049920;28;20083;-80
2023/09/25 05:32:52;;;;;;;4.85;1.95;;;9.50;99.90;;;;;;5052668;28;20053;-80
2023/09/25 05:35:19;;;;;;;3.78;1.73;;;9.50;99.90;;;;;;5046401;28;20513;-79
2023/09/25 05:37:48;;;;;;;3.53;1.83;;;9.50;99.90;;;;;;5045328;28;20122;-79
2023/09/25 05:40:16;;;;;;;4.18;1.88;;;9.50;99.90;;;;;;5049603;28;20053;-79
2023/09/25 05:42:47;;;;;;;2.30;1.80;;;9.50;99.90;;;;;;5061684;28;20067;-80
2023/09/25 05:45:16;;;;;;;3.20;2.85;;;9.50;99.90;;;;;;5056775;28;20049;-80
2023/09/25 05:47:45;;;;;;;3.33;1.60;;;9.50;99.90;;;;;;5059308;28;20103;-81
2023/09/25 05:50:12;;;;;;;3.05;1.73;;;9.50;99.90;;;;;;5050321;28;20100;-80
2023/09/25 05:52:40;;;;;;;4.50;1.70;;;9.50;99.90;;;;;;5043086;28;20049;-81
2023/09/25 05:55:08;;;;;;;6.28;2.03;;;9.50;99.90;;;;;;5054566;28;20045;-81
2023/09/25 05:57:35;;;;;;;5.93;1.83;;;9.50;99.90;;;;;;5055174;28;20057;-80
2023/09/25 06:00:15;;;;;;;4.07;1.73;;;9.50;99.90;;;;;;5050352;28;20049;-80
2023/09/25 06:02:42;;;;;;;3.47;2.00;;;9.50;99.90;;;;;;5052665;28;20072;-81
2023/09/25 06:05:15;;;;;;;3.58;1.77;;;9.50;99.90;;;;;;5045403;28;20568;-80
2023/09/25 06:07:42;;;;;;;1.65;1.35;;;9.50;99.90;;;;;;5046876;28;20064;-80
2023/09/25 06:10:10;;;;;;;4.68;2.25;;;9.60;99.90;;;;;;5053158;28;20049;-81
2023/09/25 06:12:39;;;;;;;5.38;2.08;;;9.60;99.90;;;;;;5053794;28;20045;-81
2023/09/25 06:15:10;;;;;;;3.03;1.75;;;9.60;99.90;;;;;;5047534;28;20049;-81
2023/09/25 06:17:42;;;;;;;2.38;1.50;;;9.60;99.90;;;;;;5050428;28;20063;-81
2023/09/25 06:20:15;;;;;;;2.90;1.77;;;9.60;99.90;;;;;;5047900;28;20056;-81
2023/09/25 06:22:44;;;;;;;6.60;2.25;;;9.70;99.90;;;;;;5048552;28;20128;-80
2023/09/25 06:25:17;;;;;;;3.40;1.60;;;9.70;99.90;;;;;;5052214;28;20053;-81
2023/09/25 06:27:45;;;;;;;1.98;1.60;;;9.70;99.90;;;;;;5054461;28;20544;-81
2023/09/25 06:30:14;;;;;;;6.97;2.22;;;9.80;99.90;;;;;;5044900;28;20048;-81
2023/09/25 06:32:41;;;;;;;6.10;1.90;;;9.80;99.90;;;;;;5050128;28;20102;-80
2023/09/25 06:35:08;;;;;;;3.22;2.00;;;9.90;99.90;;;;;;5044164;28;20049;-81
2023/09/25 06:37:35;;;;;;;3.63;1.52;;;9.90;99.90;;;;;;5050358;28;20049;-81
2023/09/25 06:40:09;;;;;;;2.67;1.52;;;9.90;99.90;;;;;;5052530;28;20127;-81
2023/09/25 06:42:39;;;;;;;2.50;1.40;;;9.90;99.90;;;;;;5053257;28;20041;-80
2023/09/25 06:45:07;;;;;;;4.60;1.90;;;10.00;99.90;;;;;;5046565;28;20042;-81
2023/09/25 06:47:34;;;;;;;3.05;1.98;;;10.00;99.90;;;;;;5048509;28;20511;-81
2023/09/25 06:50:01;;;;;;;4.43;1.63;;;10.10;99.90;;;;;;5047049;28;20634;-81
2023/09/25 06:52:28;;;;;;;3.13;1.55;;;10.20;99.90;;;;;;5049256;28;20053;-81
2023/09/25 06:54:56;;;;;;;1.75;1.30;;;10.20;99.90;;;;;;5053387;28;20056;-81
2023/09/25 06:57:23;;;;;;;3.70;1.75;;;10.30;99.90;;;;;;5050238;28;20056;-81
2023/09/25 06:59:49;;;;;;;5.72;1.95;;;10.30;99.90;;;;;;5045410;28;20517;-80
2023/09/25 07:02:16;;;;;;;5.07;1.83;;;10.40;99.90;;;;;;5045927;28;20136;-81
2023/09/25 07:04:43;;;;;;;8.82;2.17;;;10.50;99.90;;;;;;5044341;28;20414;-81
2023/09/25 07:07:10;;;;;;;9.65;2.30;;;10.50;99.90;;;;;;5051039;28;20047;-81
2023/09/25 07:09:36;;;;;;;5.57;2.30;;;10.60;99.90;;;;;;5033216;28;20045;-81
2023/09/25 07:12:03;;;;;;;4.63;2.60;;;10.70;99.90;;;;;;5053939;28;20041;-81
2023/09/25 07:14:30;;;;;;;5.57;2.40;;;10.70;99.90;;;;;;5040622;28;20053;-80
2023/09/25 07:16:57;;;;;;;4.95;2.63;;;10.80;99.90;;;;;;5048100;28;20437;-81
2023/09/25 07:19:24;;;;;;;5.05;2.40;;;10.90;99.90;;;;;;5044018;28;20045;-81
2023/09/25 07:21:50;;;;;;;4.25;2.58;;;10.90;99.90;;;;;;5043721;28;20115;-79
2023/09/25 07:24:17;;;;;;;9.02;2.50;;;11.00;99.90;;;;;;5048334;28;20045;-81
2023/09/25 07:26:44;;;;;;;5.95;2.97;;;11.10;99.90;;;;;;5050692;28;20072;-81
2023/09/25 07:29:11;;;;;;;3.90;2.85;;;11.20;99.90;;;;;;5042650;28;20448;-81
2023/09/25 07:31:57;;;;;;;6.35;2.97;;;11.20;99.90;;;;;;5049120;28;20040;-81
2023/09/25 07:34:24;;;;;;;4.78;2.90;;;11.30;99.90;;;;;;5049908;28;20045;-81
2023/09/25 07:36:51;;;;;;;3.85;2.50;;;11.40;99.90;;;;;;5056158;28;20045;-81
2023/09/25 07:39:22;;;;;;;4.05;2.45;;;11.40;99.90;;;;;;5048589;28;20048;-81
2023/09/25 07:41:50;;;;;;;7.18;2.17;;;11.50;99.90;;;;;;5051578;28;20115;-81
2023/09/25 07:44:16;;;;;;;4.63;2.45;;;11.50;99.90;;;;;;5043121;28;20176;-81
2023/09/25 07:46:47;;;;;;;5.25;2.13;;;11.60;99.90;;;;;;5045381;28;20045;-81
2023/09/25 07:49:14;;;;;;;4.80;2.22;;;11.60;99.90;;;;;;5052642;28;20045;-82
2023/09/25 07:51:41;;;;;;;5.60;2.40;;;11.70;99.90;;;;;;5052548;28;20045;-81
2023/09/25 07:54:08;;;;;;;9.35;2.45;;;11.80;99.90;;;;;;5047454;28;20055;-81
2023/09/25 07:56:35;;;;;;;2.72;1.50;;;11.80;99.90;;;;;;5048607;28;20052;-80
2023/09/25 07:59:02;;;;;;;6.32;2.30;;;11.80;99.90;;;;;;5044516;28;20670;-81
2023/09/25 08:01:29;;;;;;;3.72;2.30;;;11.80;99.90;;;;;;5043874;28;20052;-81
2023/09/25 08:03:57;;;;;;;4.25;2.10;;;11.90;99.90;;;;;;5051815;28;20444;-81
2023/09/25 08:06:24;;;;;;;4.45;2.00;;;11.90;99.90;;;;;;5052336;28;20205;-81
2023/09/25 08:08:57;;;;;;;2.60;1.80;;;12.00;99.90;;;;;;5049041;28;20041;-81
2023/09/25 08:11:24;;;;;;;3.15;1.80;;;12.00;99.90;;;;;;5047696;28;20105;-81
2023/09/25 08:13:53;;;;;;;3.42;2.03;;;12.00;99.90;;;;;;5027057;28;20045;-81
2023/09/25 08:16:22;;;;;;;4.75;2.13;;;12.10;99.90;;;;;;5046168;28;20045;-81
2023/09/25 08:18:49;;;;;;;6.03;1.98;;;12.10;99.90;;;;;;5057315;28;20109;-81
2023/09/25 08:21:16;;;;;;;3.67;2.30;;;12.20;99.90;;;;;;5056350;28;20048;-81
2023/09/25 08:23:43;;;;;;;4.35;2.22;;;12.20;99.90;;;;;;5050036;28;20505;-81
2023/09/25 08:26:10;;;;;;;6.25;2.30;;;12.20;99.90;;;;;;5056181;28;20041;-81
2023/09/25 08:28:37;;;;;;;3.67;2.03;;;12.30;99.90;;;;;;5048115;28;20069;-81
2023/09/25 08:31:04;;;;;;;10.48;2.67;;;12.30;99.90;;;;;;5053958;28;20052;-81
2023/09/25 08:33:31;;;;;;;3.90;2.15;;;12.30;99.90;;;;;;5054641;28;20095;-79
2023/09/25 08:35:58;;;;;;;4.78;2.78;;;12.40;99.90;;;;;;5044187;28;20056;-81
2023/09/25 08:38:24;;;;;;;5.38;2.53;;;12.40;99.90;;;;;;5047878;28;20106;-81
2023/09/25 08:40:51;;;;;;;5.28;2.38;;;12.40;99.90;;;;;;5034086;28;20049;-81
2023/09/25 08:43:21;;;;;;;4.55;2.53;;;12.50;99.90;;;;;;5047954;28;20052;-81
2023/09/25 08:45:50;;;;;;;;;;;12.50;99.90;;;;;;5050874;28;20042;-81
2023/09/25 08:48:18;;;;;;;5.13;2.05;;;12.60;99.90;;;;;;5055143;28;19970;-81
2023/09/25 08:50:46;;;;;;;3.22;2.10;;;12.60;99.90;;;;;;5054860;28;20523;-81
2023/09/25 08:53:12;;;;;;;6.03;2.45;;;12.70;99.90;;;;;;5049286;28;20114;-81
2023/09/25 08:55:41;;;;;;;3.72;2.28;;;12.80;99.90;;;;;;5049646;28;20045;-81
2023/09/25 08:58:09;;;;;;;7.07;2.50;;;12.80;99.90;;;;;;5047412;28;20045;-81
2023/09/25 09:00:37;;;;;;;5.15;2.20;;;12.90;99.90;;;;;;5047995;28;20049;-81
2023/09/25 09:03:05;;;;;;;7.53;2.70;;;13.00;99.90;;;;;;5039778;28;20331;-81
2023/09/25 09:05:32;;;;;;;4.53;2.55;;;13.10;99.90;;;;;;5052997;28;20044;-81
2023/09/25 09:07:59;;;;;;;4.82;2.08;;;13.10;99.90;;;;;;5050184;28;20081;-81
2023/09/25 09:10:31;;;;;;;3.72;2.40;;;13.20;99.90;;;;;;5050815;28;20045;-81
2023/09/25 09:12:58;;;;;;;6.13;2.22;;;13.20;99.90;;;;;;5049567;28;20045;-80
2023/09/25 09:15:30;;;;;;;5.68;2.90;;;13.30;99.90;;;;;;5055749;28;20558;-81
2023/09/25 09:17:57;;;;;;;3.85;2.67;;;13.30;99.90;;;;;;5055898;28;20056;-81
2023/09/25 09:20:36;;;;;;;4.13;2.28;;;13.40;99.90;;;;;;5052874;28;20041;-78
2023/09/25 09:23:06;;;;;;;3.90;2.22;;;13.50;99.90;;;;;;5043464;28;20076;-81
2023/09/25 09:25:33;;;;;;;4.20;2.45;;;13.50;99.90;;;;;;5048223;28;20049;-81
2023/09/25 09:28:03;;;;;;;4.78;2.58;;;13.60;99.90;;;;;;5049363;28;20155;-81
2023/09/25 09:30:30;;;;;;;4.13;2.37;;;13.60;99.90;;;;;;5056915;28;20041;-81
2023/09/25 09:32:57;;;;;;;4.25;1.95;;;13.70;99.90;;;;;;5054366;28;20051;-81
2023/09/25 09:35:25;;;;;;;2.72;2.03;;;13.70;99.90;;;;;;5052344;28;20045;-81
2023/09/25 09:37:53;;;;;;;2.88;1.92;;;13.80;99.90;;;;;;5048250;28;20049;-81
2023/09/25 09:40:24;;;;;;;3.80;1.98;;;13.80;99.90;;;;;;5049559;28;20083;-81
2023/09/25 09:42:52;;;;;;;3.60;2.13;;;13.90;99.90;;;;;;5047874;28;20046;-81
2023/09/25 09:45:20;;;;;;;3.35;2.03;;;13.90;99.90;;;;;;5057355;28;20475;-81
2023/09/25 09:47:49;;;;;;;4.30;2.28;;;14.00;99.90;;;;;;5050244;28;20041;-81
2023/09/25 09:50:22;;;;;;;3.95;2.25;;;14.00;99.90;;;;;;5049314;28;20618;-81
2023/09/25 09:52:49;;;;;;;2.90;2.15;;;14.10;99.90;;;;;;5046256;28;20137;-81
2023/09/25 09:55:18;;;;;;;7.97;1.83;;;14.10;99.90;;;;;;5054805;28;20424;-81
2023/09/25 09:57:47;;;;;;;4.05;2.15;;;14.20;99.90;;;;;;5051359;28;20051;-81
2023/09/25 10:00:14;;;;;;;3.78;2.00;;;14.20;99.90;;;;;;5056982;28;20072;-81
2023/09/25 10:02:41;;;;;;;6.95;2.40;;;14.30;99.90;;;;;;5049534;28;20493;-81
2023/09/25 10:05:11;;;;;;;4.85;2.15;;;14.30;99.90;;;;;;5053957;28;20068;-81
2023/09/25 10:08:09;;;;;;;1.88;1.50;;;14.40;99.90;;;;;;5038809;28;20447;-81
2023/09/25 10:10:43;;;;;;;3.42;1.83;;;14.40;99.90;;;;;;5050779;28;20045;-81
2023/09/25 10:13:14;;;;;;;6.60;2.10;;;14.50;99.90;;;;;;5039887;28;20071;-81
2023/09/25 10:15:52;;;;;;;4.82;1.88;;;14.50;99.90;;;;;;5053908;28;20042;-81
2023/09/25 10:18:22;;;;;;;3.78;1.45;;;14.60;99.90;;;;;;5027366;28;20132;-81
2023/09/25 10:20:49;;;;;;;3.22;1.77;;;14.70;99.90;;;;;;5050768;28;20049;-81
2023/09/25 10:23:21;;;;;;;3.35;1.63;;;14.70;99.90;;;;;;5043463;28;20046;-81
2023/09/25 10:26:03;;;;;;;2.40;1.38;;;14.70;99.90;;;;;;5034765;28;20441;-81
2023/09/25 10:28:33;;;;;;;4.55;1.70;;;14.70;99.90;;;;;;5050283;28;20047;-79
2023/09/25 10:31:01;;;;;;;2.22;1.60;;;14.70;99.90;;;;;;5052856;28;20045;-81
2023/09/25 10:33:31;;;;;;;2.50;1.25;;;14.80;99.90;;;;;;5049490;28;20072;-81
2023/09/25 10:36:03;;;;;;;4.03;1.52;;;14.80;99.90;;;;;;5050048;28;20046;-81
2023/09/25 10:38:32;;;;;;;2.00;1.20;;;14.90;99.90;;;;;;5039473;28;20046;-81
2023/09/25 10:41:02;;;;;;;1.73;1.50;;;14.90;99.90;;;;;;5056344;28;20049;-81
2023/09/25 10:43:31;;;;;;;3.67;1.27;;;14.90;99.90;;;;;;5051091;28;20529;-81
2023/09/25 10:45:58;;;;;;;2.80;1.48;;;15.00;99.90;;;;;;5050562;28;20512;-82
2023/09/25 10:48:27;;;;;;;6.03;1.55;;;15.10;99.90;;;;;;5044570;28;20042;-81
2023/09/25 10:50:55;;;;;;;5.43;2.13;;;15.10;99.90;;;;;;5049485;28;20060;-81
2023/09/25 10:53:22;;;;;;;4.72;1.50;;;15.10;99.90;;;;;;5044759;28;20045;-81
2023/09/25 10:55:49;;;;;;;4.25;1.25;;;15.20;99.90;;;;;;5052882;28;20041;-81
2023/09/25 10:58:17;;;;;;;3.38;1.30;;;15.30;99.90;;;;;;5048528;28;20047;-81
2023/09/25 11:00:46;;;;;;;3.63;1.35;;;15.40;99.90;;;;;;5047623;28;20169;-81
2023/09/25 11:03:13;;;;;;;3.35;1.10;;;15.40;99.90;;;;;;5031132;28;20419;-81
2023/09/25 11:05:40;;;;;;;2.05;1.20;;;15.40;99.90;;;;;;5048907;28;20045;-81
2023/09/25 11:08:13;;;;;;;3.35;1.05;;;15.50;99.90;;;;;;5044875;28;20512;-81
2023/09/25 11:10:40;;;;;;;3.92;1.13;;;15.60;99.90;;;;;;5052022;28;20037;-81
2023/09/25 11:13:08;;;;;;;2.53;0.90;;;15.70;99.90;;;;;;5053316;28;20042;-82
2023/09/25 11:15:39;;;;;;;4.93;1.33;;;15.60;99.90;;;;;;5045579;28;20542;-81
2023/09/25 11:18:08;;;;;;;2.75;1.00;;;15.70;99.90;;;;;;5045833;28;20428;-81
2023/09/25 11:20:37;;;;;;;6.07;1.20;;;15.80;99.90;;;;;;5048631;28;20059;-81
2023/09/25 11:23:08;;;;;;;3.45;1.40;;;15.80;99.90;;;;;;5050385;28;20056;-81
2023/09/25 11:25:51;;;;;;;2.38;1.33;;;15.80;99.90;;;;;;5048759;28;20042;-81
2023/09/25 11:28:20;;;;;;;5.60;1.40;;;15.80;99.90;;;;;;5047506;28;20040;-81
2023/09/25 11:30:48;;;;;;;3.65;1.23;;;15.80;99.90;;;;;;5046983;28;20045;-81
2023/09/25 11:33:20;;;;;;;2.53;1.33;;;15.90;99.90;;;;;;5059132;28;20493;-81
2023/09/25 11:35:49;;;;;;;3.75;1.00;;;16.00;99.90;;;;;;5045774;28;20037;-82
2023/09/25 11:38:21;;;;;;;1.40;0.90;;;16.00;99.90;;;;;;5057898;28;20044;-81
2023/09/25 11:40:50;;;;;;;3.35;1.02;;;16.20;99.90;;;;;;5049289;28;20072;-81
2023/09/25 11:43:17;;;;;;;3.38;1.35;;;16.30;99.90;;;;;;5051976;28;20036;-81
2023/09/25 11:45:44;;;;;;;6.50;1.45;;;16.30;99.90;;;;;;5026968;28;20052;-81
2023/09/25 11:48:14;;;;;;;2.95;0.93;;;16.40;99.90;;;;;;5029640;28;20460;-80
2023/09/25 11:50:41;;;;;;;4.00;1.20;;;16.40;99.90;;;;;;5053384;28;20045;-81
2023/09/25 11:53:08;;;;;;;1.80;1.15;;;16.40;99.90;;;;;;5056685;28;20045;-80
2023/09/25 11:55:35;;;;;;;4.18;1.10;;;16.50;99.90;;;;;;5049270;28;20055;-80
2023/09/25 11:58:07;;;;;;;2.55;1.17;;;16.50;99.90;;;;;;5049123;28;20045;-81
2023/09/25 12:00:34;;;;;;;2.25;1.10;;;16.50;99.90;;;;;;5046829;28;20103;-81
2023/09/25 12:03:03;;;;;;;4.35;1.35;;;16.50;99.90;;;;;;5050130;28;20053;-83
2023/09/25 12:05:30;;;;;;;3.15;1.23;;;16.60;99.90;;;;;;5040143;28;20123;-81
2023/09/25 12:07:57;;;;;;;1.92;0.90;;;16.60;99.90;;;;;;5056073;28;20507;-81
2023/09/25 12:10:24;;;;;;;4.00;1.13;;;16.70;99.90;;;;;;5035809;28;20067;-79
2023/09/25 12:12:50;;;;;;;6.05;1.20;;;16.70;99.90;;;;;;5049163;28;20094;-79
2023/09/25 12:15:17;;;;;;;3.83;1.20;;;16.70;99.90;;;;;;5046910;28;20524;-79
2023/09/25 12:17:45;;;;;;;3.13;1.20;;;16.80;99.90;;;;;;5040720;28;20065;-79
2023/09/25 12:20:15;;;;;;;4.43;1.25;;;16.80;99.90;;;;;;5053754;28;20428;-79
2023/09/25 12:22:45;;;;;;;2.53;1.35;;;16.80;99.90;;;;;;5052890;28;20106;-80
2023/09/25 12:25:16;;;;;;;1.67;1.00;;;16.80;99.90;;;;;;5048553;28;20037;-79
2023/09/25 12:27:44;;;;;;;5.15;1.10;;;16.80;99.90;;;;;;5048820;28;20127;-82
2023/09/25 12:30:13;;;;;;;2.50;0.82;;;16.90;99.90;;;;;;5035214;28;20049;-80
2023/09/25 12:32:41;;;;;;;1.90;1.00;;;17.20;99.90;;;;;;5046154;28;20041;-81
2023/09/25 12:35:08;;;;;;;3.78;1.15;;;17.20;99.90;;;;;;5041365;28;20053;-81
2023/09/25 12:37:35;;;;;;;5.40;1.20;;;17.20;99.90;;;;;;5033049;28;20044;-81
2023/09/25 12:40:03;;;;;;;1.98;1.10;;;17.30;99.90;;;;;;5052694;28;20071;-82
2023/09/25 12:42:30;;;;;;;1.67;1.00;;;17.40;99.90;;;;;;5053167;28;20117;-80
2023/09/25 12:45:17;;;;;;;3.45;1.13;;;17.40;99.90;;;;;;5046591;28;20048;-80
2023/09/25 12:47:44;;;;;;;3.05;0.98;;;17.50;99.90;;;;;;5045982;28;20047;-80
2023/09/25 12:50:11;;;;;;;3.03;0.90;;;17.50;99.90;;;;;;5059201;28;20047;-80
2023/09/25 12:52:38;;;;;;;2.10;1.10;;;17.50;99.90;;;;;;5051944;28;20041;-79